sensor_id;sensor_type;location;lat;lon;timestamp;P1;durP1;ratioP1;P2;durP2;ratioP2
21326;SDS011;10822;51.532;6.770;2023-07-02T00:01:02;6.63;;;3.00;;
21326;SDS011;10822;51.532;6.770;2023-07-02T00:03:28;5.80;;;3.20;;
21326;SDS011;10822;51.532;6.770;2023-07-02T00:05:54;3.45;;;2.67;;
21326;SDS011;10822;51.532;6.770;2023-07-02T00:08:21;4.75;;;2.92;;
21326;SDS011;10822;51.532;6.770;2023-07-02T00:10:47;3.67;;;2.97;;
21326;SDS011;10822;51.532;6.770;2023-07-02T00:13:14;5.43;;;3.08;;
21326;SDS011;10822;51.532;6.770;2023-07-02T00:15:40;7.25;;;3.13;;
21326;SDS011;10822;51.532;6.770;2023-07-02T00:18:06;7.32;;;2.90;;
21326;SDS011;10822;51.532;6.770;2023-07-02T00:20:33;5.65;;;3.47;;
21326;SDS011;10822;51.532;6.770;2023-07-02T00:23:03;6.35;;;3.47;;
21326;SDS011;10822;51.532;6.770;2023-07-02T00:25:29;7.97;;;3.10;;
21326;SDS011;10822;51.532;6.770;2023-07-02T00:27:55;6.07;;;3.35;;
21326;SDS011;10822;51.532;6.770;2023-07-02T00:30:21;5.53;;;3.00;;
21326;SDS011;10822;51.532;6.770;2023-07-02T00:32:47;6.93;;;3.40;;
21326;SDS011;10822;51.532;6.770;2023-07-02T00:35:13;5.00;;;3.05;;
21326;SDS011;10822;51.532;6.770;2023-07-02T00:37:39;7.30;;;3.08;;
21326;SDS011;10822;51.532;6.770;2023-07-02T00:40:05;6.40;;;3.25;;
21326;SDS011;10822;51.532;6.770;2023-07-02T00:42:31;5.55;;;2.88;;
21326;SDS011;10822;51.532;6.770;2023-07-02T00:44:57;5.95;;;3.20;;
21326;SDS011;10822;51.532;6.770;2023-07-02T00:47:27;5.93;;;3.50;;
21326;SDS011;10822;51.532;6.770;2023-07-02T00:49:53;5.88;;;3.33;;
21326;SDS011;10822;51.532;6.770;2023-07-02T00:52:19;8.77;;;3.10;;
21326;SDS011;10822;51.532;6.770;2023-07-02T00:54:46;7.22;;;3.38;;
21326;SDS011;10822;51.532;6.770;2023-07-02T00:57:12;6.75;;;3.17;;
21326;SDS011;10822;51.532;6.770;2023-07-02T00:59:38;6.30;;;3.40;;
21326;SDS011;10822;51.532;6.770;2023-07-02T01:02:04;5.43;;;3.33;;
21326;SDS011;10822;51.532;6.770;2023-07-02T01:04:31;7.43;;;3.72;;
21326;SDS011;10822;51.532;6.770;2023-07-02T01:06:57;5.38;;;3.80;;
21326;SDS011;10822;51.532;6.770;2023-07-02T01:09:23;7.90;;;4.30;;
21326;SDS011;10822;51.532;6.770;2023-07-02T01:11:53;10.18;;;4.72;;
21326;SDS011;10822;51.532;6.770;2023-07-02T01:17:01;7.45;;;3.88;;
21326;SDS011;10822;51.532;6.770;2023-07-02T01:19:47;6.72;;;3.72;;
21326;SDS011;10822;51.532;6.770;2023-07-02T01:22:21;6.53;;;3.50;;
21326;SDS011;10822;51.532;6.770;2023-07-02T01:24:47;6.10;;;4.03;;
21326;SDS011;10822;51.532;6.770;2023-07-02T01:27:14;9.32;;;3.53;;
21326;SDS011;10822;51.532;6.770;2023-07-02T01:29:40;6.88;;;4.03;;
21326;SDS011;10822;51.532;6.770;2023-07-02T01:32:06;8.98;;;3.65;;
21326;SDS011;10822;51.532;6.770;2023-07-02T01:34:33;6.50;;;3.40;;
21326;SDS011;10822;51.532;6.770;2023-07-02T01:37:00;6.90;;;3.80;;
21326;SDS011;10822;51.532;6.770;2023-07-02T01:39:26;6.47;;;3.70;;
21326;SDS011;10822;51.532;6.770;2023-07-02T01:41:53;8.13;;;4.18;;
21326;SDS011;10822;51.532;6.770;2023-07-02T01:44:19;7.03;;;3.63;;
21326;SDS011;10822;51.532;6.770;2023-07-02T01:46:46;8.48;;;3.95;;
21326;SDS011;10822;51.532;6.770;2023-07-02T01:49:14;11.88;;;4.70;;
21326;SDS011;10822;51.532;6.770;2023-07-02T01:51:40;8.18;;;4.15;;
21326;SDS011;10822;51.532;6.770;2023-07-02T01:54:06;9.40;;;4.50;;
21326;SDS011;10822;51.532;6.770;2023-07-02T01:56:32;8.13;;;4.40;;
21326;SDS011;10822;51.532;6.770;2023-07-02T01:58:58;7.47;;;4.38;;
21326;SDS011;10822;51.532;6.770;2023-07-02T02:01:24;9.32;;;4.63;;
21326;SDS011;10822;51.532;6.770;2023-07-02T02:03:50;12.18;;;4.45;;
21326;SDS011;10822;51.532;6.770;2023-07-02T02:06:16;9.88;;;5.13;;
21326;SDS011;10822;51.532;6.770;2023-07-02T02:08:42;8.00;;;4.22;;
21326;SDS011;10822;51.532;6.770;2023-07-02T02:11:07;13.45;;;4.63;;
21326;SDS011;10822;51.532;6.770;2023-07-02T02:13:33;9.35;;;4.75;;
21326;SDS011;10822;51.532;6.770;2023-07-02T02:15:59;10.82;;;4.65;;
21326;SDS011;10822;51.532;6.770;2023-07-02T02:18:25;10.48;;;5.38;;
21326;SDS011;10822;51.532;6.770;2023-07-02T02:20:51;11.57;;;5.20;;
21326;SDS011;10822;51.532;6.770;2023-07-02T02:23:17;10.25;;;5.45;;
21326;SDS011;10822;51.532;6.770;2023-07-02T02:25:43;9.98;;;5.43;;
21326;SDS011;10822;51.532;6.770;2023-07-02T02:28:09;9.52;;;5.18;;
21326;SDS011;10822;51.532;6.770;2023-07-02T02:30:35;11.20;;;5.68;;
21326;SDS011;10822;51.532;6.770;2023-07-02T02:33:01;12.00;;;5.55;;
21326;SDS011;10822;51.532;6.770;2023-07-02T02:35:27;11.32;;;6.03;;
21326;SDS011;10822;51.532;6.770;2023-07-02T02:37:53;12.10;;;6.30;;
21326;SDS011;10822;51.532;6.770;2023-07-02T02:40:19;11.38;;;5.72;;
21326;SDS011;10822;51.532;6.770;2023-07-02T02:42:45;15.70;;;6.47;;
21326;SDS011;10822;51.532;6.770;2023-07-02T02:45:11;10.90;;;5.85;;
21326;SDS011;10822;51.532;6.770;2023-07-02T02:47:37;14.07;;;6.47;;
21326;SDS011;10822;51.532;6.770;2023-07-02T02:50:03;10.10;;;6.30;;
21326;SDS011;10822;51.532;6.770;2023-07-02T02:52:29;11.30;;;6.13;;
21326;SDS011;10822;51.532;6.770;2023-07-02T02:54:55;11.68;;;6.15;;
21326;SDS011;10822;51.532;6.770;2023-07-02T02:57:21;15.20;;;6.93;;
21326;SDS011;10822;51.532;6.770;2023-07-02T02:59:47;12.95;;;6.50;;
21326;SDS011;10822;51.532;6.770;2023-07-02T03:02:13;10.18;;;5.97;;
21326;SDS011;10822;51.532;6.770;2023-07-02T03:04:39;14.80;;;7.13;;
21326;SDS011;10822;51.532;6.770;2023-07-02T03:07:06;12.95;;;6.65;;
21326;SDS011;10822;51.532;6.770;2023-07-02T03:09:32;13.77;;;7.28;;
21326;SDS011;10822;51.532;6.770;2023-07-02T03:11:59;12.60;;;6.82;;
21326;SDS011;10822;51.532;6.770;2023-07-02T03:14:25;13.02;;;6.35;;
21326;SDS011;10822;51.532;6.770;2023-07-02T03:16:50;12.52;;;7.32;;
21326;SDS011;10822;51.532;6.770;2023-07-02T03:19:16;14.45;;;7.90;;
21326;SDS011;10822;51.532;6.770;2023-07-02T03:21:43;14.00;;;7.43;;
21326;SDS011;10822;51.532;6.770;2023-07-02T03:24:09;14.48;;;7.28;;
21326;SDS011;10822;51.532;6.770;2023-07-02T03:26:38;15.85;;;7.20;;
21326;SDS011;10822;51.532;6.770;2023-07-02T03:29:04;14.98;;;7.88;;
21326;SDS011;10822;51.532;6.770;2023-07-02T03:31:30;16.20;;;8.02;;
21326;SDS011;10822;51.532;6.770;2023-07-02T03:33:56;16.88;;;7.35;;
21326;SDS011;10822;51.532;6.770;2023-07-02T03:36:22;15.75;;;7.35;;
21326;SDS011;10822;51.532;6.770;2023-07-02T03:38:47;16.27;;;8.23;;
21326;SDS011;10822;51.532;6.770;2023-07-02T03:41:13;13.32;;;7.88;;
21326;SDS011;10822;51.532;6.770;2023-07-02T03:43:39;13.38;;;7.90;;
21326;SDS011;10822;51.532;6.770;2023-07-02T03:46:05;15.98;;;7.60;;
21326;SDS011;10822;51.532;6.770;2023-07-02T03:48:31;14.27;;;8.07;;
21326;SDS011;10822;51.532;6.770;2023-07-02T03:50:57;17.15;;;8.30;;
21326;SDS011;10822;51.532;6.770;2023-07-02T03:53:23;16.30;;;8.55;;
21326;SDS011;10822;51.532;6.770;2023-07-02T03:55:49;16.10;;;8.95;;
21326;SDS011;10822;51.532;6.770;2023-07-02T03:58:15;15.98;;;8.75;;
21326;SDS011;10822;51.532;6.770;2023-07-02T04:00:41;14.65;;;8.50;;
21326;SDS011;10822;51.532;6.770;2023-07-02T04:03:09;20.65;;;9.25;;
21326;SDS011;10822;51.532;6.770;2023-07-02T04:05:35;17.00;;;9.05;;
21326;SDS011;10822;51.532;6.770;2023-07-02T04:08:01;18.13;;;8.50;;
21326;SDS011;10822;51.532;6.770;2023-07-02T04:10:27;21.05;;;9.60;;
21326;SDS011;10822;51.532;6.770;2023-07-02T04:12:52;19.60;;;9.60;;
21326;SDS011;10822;51.532;6.770;2023-07-02T04:15:18;20.10;;;9.15;;
21326;SDS011;10822;51.532;6.770;2023-07-02T04:17:44;17.35;;;8.68;;
21326;SDS011;10822;51.532;6.770;2023-07-02T04:20:10;20.35;;;8.77;;
21326;SDS011;10822;51.532;6.770;2023-07-02T04:22:36;16.58;;;8.73;;
21326;SDS011;10822;51.532;6.770;2023-07-02T04:25:03;13.82;;;8.18;;
21326;SDS011;10822;51.532;6.770;2023-07-02T04:27:29;22.95;;;9.32;;
21326;SDS011;10822;51.532;6.770;2023-07-02T04:29:55;15.20;;;8.55;;
21326;SDS011;10822;51.532;6.770;2023-07-02T04:32:21;17.88;;;10.05;;
21326;SDS011;10822;51.532;6.770;2023-07-02T04:34:46;17.92;;;9.25;;
21326;SDS011;10822;51.532;6.770;2023-07-02T04:37:12;17.27;;;9.18;;
21326;SDS011;10822;51.532;6.770;2023-07-02T04:39:40;18.38;;;9.95;;
21326;SDS011;10822;51.532;6.770;2023-07-02T04:42:06;20.98;;;10.48;;
21326;SDS011;10822;51.532;6.770;2023-07-02T04:44:32;16.90;;;9.38;;
21326;SDS011;10822;51.532;6.770;2023-07-02T04:46:58;20.65;;;9.82;;
21326;SDS011;10822;51.532;6.770;2023-07-02T04:49:24;18.92;;;10.13;;
21326;SDS011;10822;51.532;6.770;2023-07-02T04:51:50;20.05;;;10.27;;
21326;SDS011;10822;51.532;6.770;2023-07-02T04:54:18;21.15;;;9.85;;
21326;SDS011;10822;51.532;6.770;2023-07-02T04:56:44;17.58;;;9.43;;
21326;SDS011;10822;51.532;6.770;2023-07-02T04:59:10;22.40;;;10.45;;
21326;SDS011;10822;51.532;6.770;2023-07-02T05:01:36;19.50;;;10.10;;
21326;SDS011;10822;51.532;6.770;2023-07-02T05:04:02;18.83;;;9.55;;
21326;SDS011;10822;51.532;6.770;2023-07-02T05:06:28;19.67;;;10.05;;
21326;SDS011;10822;51.532;6.770;2023-07-02T05:08:54;21.15;;;10.10;;
21326;SDS011;10822;51.532;6.770;2023-07-02T05:11:20;19.42;;;9.70;;
21326;SDS011;10822;51.532;6.770;2023-07-02T05:13:46;20.88;;;10.77;;
21326;SDS011;10822;51.532;6.770;2023-07-02T05:16:12;18.52;;;10.15;;
21326;SDS011;10822;51.532;6.770;2023-07-02T05:18:38;19.35;;;9.50;;
21326;SDS011;10822;51.532;6.770;2023-07-02T05:21:04;22.10;;;11.50;;
21326;SDS011;10822;51.532;6.770;2023-07-02T05:23:30;19.48;;;9.80;;
21326;SDS011;10822;51.532;6.770;2023-07-02T05:25:56;19.17;;;10.32;;
21326;SDS011;10822;51.532;6.770;2023-07-02T05:28:22;18.73;;;10.07;;
21326;SDS011;10822;51.532;6.770;2023-07-02T05:30:48;18.45;;;9.65;;
21326;SDS011;10822;51.532;6.770;2023-07-02T05:33:14;19.98;;;10.18;;
21326;SDS011;10822;51.532;6.770;2023-07-02T05:35:40;25.00;;;10.70;;
21326;SDS011;10822;51.532;6.770;2023-07-02T05:38:06;21.00;;;9.73;;
21326;SDS011;10822;51.532;6.770;2023-07-02T05:40:32;17.48;;;9.57;;
21326;SDS011;10822;51.532;6.770;2023-07-02T05:42:58;20.17;;;9.57;;
21326;SDS011;10822;51.532;6.770;2023-07-02T05:45:24;18.42;;;9.95;;
21326;SDS011;10822;51.532;6.770;2023-07-02T05:47:52;25.70;;;11.23;;
21326;SDS011;10822;51.532;6.770;2023-07-02T05:50:18;19.65;;;10.00;;
21326;SDS011;10822;51.532;6.770;2023-07-02T05:52:44;18.75;;;9.80;;
21326;SDS011;10822;51.532;6.770;2023-07-02T05:55:10;22.70;;;10.27;;
21326;SDS011;10822;51.532;6.770;2023-07-02T05:57:36;17.70;;;9.05;;
21326;SDS011;10822;51.532;6.770;2023-07-02T06:00:04;16.70;;;9.75;;
21326;SDS011;10822;51.532;6.770;2023-07-02T06:02:31;19.85;;;9.70;;
21326;SDS011;10822;51.532;6.770;2023-07-02T06:04:57;17.88;;;9.35;;
21326;SDS011;10822;51.532;6.770;2023-07-02T06:07:26;21.20;;;9.98;;
21326;SDS011;10822;51.532;6.770;2023-07-02T06:09:52;17.85;;;9.20;;
21326;SDS011;10822;51.532;6.770;2023-07-02T06:12:18;14.85;;;8.23;;
21326;SDS011;10822;51.532;6.770;2023-07-02T06:14:45;17.95;;;8.48;;
21326;SDS011;10822;51.532;6.770;2023-07-02T06:17:11;18.67;;;9.32;;
21326;SDS011;10822;51.532;6.770;2023-07-02T06:19:37;19.02;;;8.55;;
21326;SDS011;10822;51.532;6.770;2023-07-02T06:22:04;19.10;;;9.82;;
21326;SDS011;10822;51.532;6.770;2023-07-02T06:24:30;19.65;;;9.57;;
21326;SDS011;10822;51.532;6.770;2023-07-02T06:26:56;18.77;;;8.88;;
21326;SDS011;10822;51.532;6.770;2023-07-02T06:29:22;19.17;;;8.55;;
21326;SDS011;10822;51.532;6.770;2023-07-02T06:31:49;20.48;;;9.00;;
21326;SDS011;10822;51.532;6.770;2023-07-02T06:34:15;17.90;;;8.48;;
21326;SDS011;10822;51.532;6.770;2023-07-02T06:36:42;15.95;;;8.05;;
21326;SDS011;10822;51.532;6.770;2023-07-02T06:39:08;18.42;;;8.45;;
21326;SDS011;10822;51.532;6.770;2023-07-02T06:41:35;16.33;;;7.50;;
21326;SDS011;10822;51.532;6.770;2023-07-02T06:44:01;22.30;;;9.18;;
21326;SDS011;10822;51.532;6.770;2023-07-02T06:46:27;16.70;;;7.88;;
21326;SDS011;10822;51.532;6.770;2023-07-02T06:48:54;17.60;;;7.90;;
21326;SDS011;10822;51.532;6.770;2023-07-02T06:51:20;13.45;;;7.55;;
21326;SDS011;10822;51.532;6.770;2023-07-02T06:53:46;18.48;;;7.32;;
21326;SDS011;10822;51.532;6.770;2023-07-02T06:56:12;13.88;;;7.03;;
21326;SDS011;10822;51.532;6.770;2023-07-02T06:58:44;18.45;;;7.90;;
21326;SDS011;10822;51.532;6.770;2023-07-02T07:01:10;13.52;;;7.00;;
21326;SDS011;10822;51.532;6.770;2023-07-02T07:03:36;15.18;;;7.03;;
21326;SDS011;10822;51.532;6.770;2023-07-02T07:06:02;17.45;;;7.35;;
21326;SDS011;10822;51.532;6.770;2023-07-02T07:08:28;14.20;;;6.90;;
21326;SDS011;10822;51.532;6.770;2023-07-02T07:10:54;15.65;;;7.28;;
21326;SDS011;10822;51.532;6.770;2023-07-02T07:13:20;16.23;;;7.07;;
21326;SDS011;10822;51.532;6.770;2023-07-02T07:15:46;16.58;;;7.30;;
21326;SDS011;10822;51.532;6.770;2023-07-02T07:18:12;14.30;;;6.95;;
21326;SDS011;10822;51.532;6.770;2023-07-02T07:20:38;16.65;;;7.55;;
21326;SDS011;10822;51.532;6.770;2023-07-02T07:23:08;15.07;;;6.72;;
21326;SDS011;10822;51.532;6.770;2023-07-02T07:25:34;15.68;;;7.05;;
21326;SDS011;10822;51.532;6.770;2023-07-02T07:28:00;16.27;;;7.00;;
21326;SDS011;10822;51.532;6.770;2023-07-02T07:30:26;13.85;;;6.18;;
21326;SDS011;10822;51.532;6.770;2023-07-02T07:32:52;15.35;;;6.05;;
21326;SDS011;10822;51.532;6.770;2023-07-02T07:35:19;14.70;;;6.60;;
21326;SDS011;10822;51.532;6.770;2023-07-02T07:37:46;17.30;;;6.97;;
21326;SDS011;10822;51.532;6.770;2023-07-02T07:40:12;14.90;;;6.95;;
21326;SDS011;10822;51.532;6.770;2023-07-02T07:42:38;15.35;;;6.97;;
21326;SDS011;10822;51.532;6.770;2023-07-02T07:45:05;11.80;;;6.30;;
21326;SDS011;10822;51.532;6.770;2023-07-02T07:47:31;14.32;;;6.85;;
21326;SDS011;10822;51.532;6.770;2023-07-02T07:49:57;15.02;;;7.15;;
21326;SDS011;10822;51.532;6.770;2023-07-02T07:52:23;17.33;;;7.38;;
21326;SDS011;10822;51.532;6.770;2023-07-02T07:54:48;15.57;;;6.63;;
21326;SDS011;10822;51.532;6.770;2023-07-02T07:57:15;18.25;;;8.18;;
21326;SDS011;10822;51.532;6.770;2023-07-02T07:59:41;17.73;;;7.45;;
21326;SDS011;10822;51.532;6.770;2023-07-02T08:02:07;16.40;;;7.22;;
21326;SDS011;10822;51.532;6.770;2023-07-02T08:04:34;12.60;;;6.50;;
21326;SDS011;10822;51.532;6.770;2023-07-02T08:07:00;14.05;;;6.70;;
21326;SDS011;10822;51.532;6.770;2023-07-02T08:09:29;13.98;;;6.55;;
21326;SDS011;10822;51.532;6.770;2023-07-02T08:11:55;12.15;;;5.78;;
21326;SDS011;10822;51.532;6.770;2023-07-02T08:14:21;10.57;;;5.72;;
21326;SDS011;10822;51.532;6.770;2023-07-02T08:16:47;12.50;;;5.47;;
21326;SDS011;10822;51.532;6.770;2023-07-02T08:19:13;13.02;;;5.55;;
21326;SDS011;10822;51.532;6.770;2023-07-02T08:21:39;10.23;;;5.10;;
21326;SDS011;10822;51.532;6.770;2023-07-02T08:24:05;8.98;;;5.25;;
21326;SDS011;10822;51.532;6.770;2023-07-02T08:26:31;10.70;;;4.88;;
21326;SDS011;10822;51.532;6.770;2023-07-02T08:28:57;12.25;;;5.35;;
21326;SDS011;10822;51.532;6.770;2023-07-02T08:31:23;10.23;;;5.28;;
21326;SDS011;10822;51.532;6.770;2023-07-02T08:33:49;11.48;;;5.68;;
21326;SDS011;10822;51.532;6.770;2023-07-02T08:36:15;9.98;;;5.18;;
21326;SDS011;10822;51.532;6.770;2023-07-02T08:38:41;9.50;;;4.43;;
21326;SDS011;10822;51.532;6.770;2023-07-02T08:41:08;9.20;;;4.70;;
21326;SDS011;10822;51.532;6.770;2023-07-02T08:43:34;9.00;;;4.50;;
21326;SDS011;10822;51.532;6.770;2023-07-02T08:46:01;9.70;;;4.90;;
21326;SDS011;10822;51.532;6.770;2023-07-02T08:48:27;9.48;;;4.40;;
21326;SDS011;10822;51.532;6.770;2023-07-02T08:50:55;6.53;;;4.03;;
21326;SDS011;10822;51.532;6.770;2023-07-02T08:53:21;7.72;;;4.15;;
21326;SDS011;10822;51.532;6.770;2023-07-02T08:55:54;10.18;;;4.25;;
21326;SDS011;10822;51.532;6.770;2023-07-02T08:58:21;10.88;;;4.95;;
21326;SDS011;10822;51.532;6.770;2023-07-02T09:03:32;9.15;;;4.13;;
21326;SDS011;10822;51.532;6.770;2023-07-02T09:05:58;8.32;;;4.22;;
21326;SDS011;10822;51.532;6.770;2023-07-02T09:08:24;9.80;;;4.35;;
21326;SDS011;10822;51.532;6.770;2023-07-02T09:10:50;10.07;;;4.82;;
21326;SDS011;10822;51.532;6.770;2023-07-02T09:13:16;10.18;;;4.50;;
21326;SDS011;10822;51.532;6.770;2023-07-02T09:15:42;9.55;;;4.70;;
21326;SDS011;10822;51.532;6.770;2023-07-02T09:20:41;9.93;;;4.95;;
21326;SDS011;10822;51.532;6.770;2023-07-02T09:23:07;11.43;;;3.92;;
21326;SDS011;10822;51.532;6.770;2023-07-02T09:25:34;7.43;;;4.05;;
21326;SDS011;10822;51.532;6.770;2023-07-02T09:28:00;9.27;;;4.43;;
21326;SDS011;10822;51.532;6.770;2023-07-02T09:30:26;7.38;;;3.67;;
21326;SDS011;10822;51.532;6.770;2023-07-02T09:32:51;8.50;;;4.25;;
21326;SDS011;10822;51.532;6.770;2023-07-02T09:35:19;8.95;;;4.43;;
21326;SDS011;10822;51.532;6.770;2023-07-02T09:37:45;8.27;;;4.03;;
21326;SDS011;10822;51.532;6.770;2023-07-02T09:40:11;9.88;;;4.38;;
21326;SDS011;10822;51.532;6.770;2023-07-02T09:42:38;7.57;;;4.10;;
21326;SDS011;10822;51.532;6.770;2023-07-02T09:45:06;8.55;;;4.57;;
21326;SDS011;10822;51.532;6.770;2023-07-02T09:47:35;10.15;;;4.95;;
21326;SDS011;10822;51.532;6.770;2023-07-02T09:50:04;10.48;;;4.68;;
21326;SDS011;10822;51.532;6.770;2023-07-02T09:52:30;9.07;;;4.05;;
21326;SDS011;10822;51.532;6.770;2023-07-02T09:54:57;9.45;;;4.53;;
21326;SDS011;10822;51.532;6.770;2023-07-02T09:57:23;7.35;;;4.55;;
21326;SDS011;10822;51.532;6.770;2023-07-02T09:59:49;9.05;;;4.32;;
21326;SDS011;10822;51.532;6.770;2023-07-02T10:02:15;12.50;;;5.18;;
21326;SDS011;10822;51.532;6.770;2023-07-02T10:04:42;11.20;;;4.45;;
21326;SDS011;10822;51.532;6.770;2023-07-02T10:07:08;8.27;;;4.45;;
21326;SDS011;10822;51.532;6.770;2023-07-02T10:09:44;7.85;;;4.50;;
21326;SDS011;10822;51.532;6.770;2023-07-02T10:12:23;10.63;;;5.03;;
21326;SDS011;10822;51.532;6.770;2023-07-02T10:14:50;10.00;;;4.18;;
21326;SDS011;10822;51.532;6.770;2023-07-02T10:17:27;11.75;;;4.63;;
21326;SDS011;10822;51.532;6.770;2023-07-02T10:19:54;9.57;;;4.45;;
21326;SDS011;10822;51.532;6.770;2023-07-02T10:22:20;8.68;;;4.63;;
21326;SDS011;10822;51.532;6.770;2023-07-02T10:24:56;8.57;;;4.13;;
21326;SDS011;10822;51.532;6.770;2023-07-02T10:27:34;9.80;;;4.72;;
21326;SDS011;10822;51.532;6.770;2023-07-02T10:30:01;11.25;;;4.97;;
21326;SDS011;10822;51.532;6.770;2023-07-02T10:32:28;32.08;;;5.65;;
21326;SDS011;10822;51.532;6.770;2023-07-02T10:34:54;9.60;;;4.65;;
21326;SDS011;10822;51.532;6.770;2023-07-02T10:37:21;17.58;;;5.22;;
21326;SDS011;10822;51.532;6.770;2023-07-02T10:39:47;12.32;;;4.63;;
21326;SDS011;10822;51.532;6.770;2023-07-02T10:42:13;12.43;;;4.70;;
21326;SDS011;10822;51.532;6.770;2023-07-02T10:44:51;8.45;;;4.47;;
21326;SDS011;10822;51.532;6.770;2023-07-02T10:47:18;9.18;;;4.60;;
21326;SDS011;10822;51.532;6.770;2023-07-02T10:49:44;22.33;;;5.78;;
21326;SDS011;10822;51.532;6.770;2023-07-02T10:52:10;10.73;;;5.05;;
21326;SDS011;10822;51.532;6.770;2023-07-02T10:54:40;10.38;;;4.63;;
21326;SDS011;10822;51.532;6.770;2023-07-02T10:57:07;6.80;;;4.10;;
21326;SDS011;10822;51.532;6.770;2023-07-02T10:59:33;7.93;;;4.10;;
21326;SDS011;10822;51.532;6.770;2023-07-02T11:01:59;9.32;;;4.10;;
21326;SDS011;10822;51.532;6.770;2023-07-02T11:04:28;8.07;;;4.13;;
21326;SDS011;10822;51.532;6.770;2023-07-02T11:06:54;9.25;;;4.70;;
21326;SDS011;10822;51.532;6.770;2023-07-02T11:09:20;10.27;;;4.50;;
21326;SDS011;10822;51.532;6.770;2023-07-02T11:11:56;8.63;;;4.18;;
21326;SDS011;10822;51.532;6.770;2023-07-02T11:16:54;11.07;;;4.25;;
21326;SDS011;10822;51.532;6.770;2023-07-02T11:19:20;8.38;;;4.72;;
21326;SDS011;10822;51.532;6.770;2023-07-02T11:21:50;7.65;;;4.05;;
21326;SDS011;10822;51.532;6.770;2023-07-02T11:24:16;8.77;;;4.25;;
21326;SDS011;10822;51.532;6.770;2023-07-02T11:26:51;9.20;;;4.28;;
21326;SDS011;10822;51.532;6.770;2023-07-02T11:29:17;8.27;;;4.05;;
21326;SDS011;10822;51.532;6.770;2023-07-02T11:31:44;8.25;;;4.15;;
21326;SDS011;10822;51.532;6.770;2023-07-02T11:34:13;10.77;;;3.97;;
21326;SDS011;10822;51.532;6.770;2023-07-02T11:36:39;7.40;;;3.92;;
21326;SDS011;10822;51.532;6.770;2023-07-02T11:39:05;9.90;;;4.70;;
21326;SDS011;10822;51.532;6.770;2023-07-02T11:44:04;9.13;;;4.25;;
21326;SDS011;10822;51.532;6.770;2023-07-02T11:46:30;7.03;;;3.60;;
21326;SDS011;10822;51.532;6.770;2023-07-02T11:48:55;9.27;;;4.10;;
21326;SDS011;10822;51.532;6.770;2023-07-02T11:51:21;9.93;;;4.63;;
21326;SDS011;10822;51.532;6.770;2023-07-02T11:53:47;8.48;;;4.40;;
21326;SDS011;10822;51.532;6.770;2023-07-02T11:56:13;7.93;;;4.10;;
21326;SDS011;10822;51.532;6.770;2023-07-02T11:58:40;8.77;;;3.97;;
21326;SDS011;10822;51.532;6.770;2023-07-02T12:01:06;9.10;;;4.40;;
21326;SDS011;10822;51.532;6.770;2023-07-02T12:03:32;9.13;;;4.47;;
21326;SDS011;10822;51.532;6.770;2023-07-02T12:05:58;9.98;;;3.80;;
21326;SDS011;10822;51.532;6.770;2023-07-02T12:08:24;8.68;;;4.68;;
21326;SDS011;10822;51.532;6.770;2023-07-02T12:10:50;9.70;;;4.05;;
21326;SDS011;10822;51.532;6.770;2023-07-02T12:13:16;7.05;;;3.83;;
21326;SDS011;10822;51.532;6.770;2023-07-02T12:15:42;11.10;;;4.35;;
21326;SDS011;10822;51.532;6.770;2023-07-02T12:18:08;7.00;;;3.90;;
21326;SDS011;10822;51.532;6.770;2023-07-02T12:20:34;7.45;;;3.95;;
21326;SDS011;10822;51.532;6.770;2023-07-02T12:23:01;8.43;;;4.40;;
21326;SDS011;10822;51.532;6.770;2023-07-02T12:25:27;8.55;;;4.50;;
21326;SDS011;10822;51.532;6.770;2023-07-02T12:27:53;8.80;;;4.38;;
21326;SDS011;10822;51.532;6.770;2023-07-02T12:30:19;9.43;;;3.70;;
21326;SDS011;10822;51.532;6.770;2023-07-02T12:32:45;9.05;;;4.40;;
21326;SDS011;10822;51.532;6.770;2023-07-02T12:35:11;8.45;;;4.03;;
21326;SDS011;10822;51.532;6.770;2023-07-02T12:37:43;7.32;;;4.15;;
21326;SDS011;10822;51.532;6.770;2023-07-02T12:40:10;8.80;;;4.18;;
21326;SDS011;10822;51.532;6.770;2023-07-02T12:42:36;8.85;;;4.30;;
21326;SDS011;10822;51.532;6.770;2023-07-02T12:45:02;7.32;;;3.92;;
21326;SDS011;10822;51.532;6.770;2023-07-02T12:47:28;9.05;;;4.20;;
21326;SDS011;10822;51.532;6.770;2023-07-02T12:49:54;11.75;;;4.70;;
21326;SDS011;10822;51.532;6.770;2023-07-02T12:52:20;12.38;;;4.45;;
21326;SDS011;10822;51.532;6.770;2023-07-02T12:54:46;11.35;;;4.70;;
21326;SDS011;10822;51.532;6.770;2023-07-02T12:57:12;10.32;;;4.47;;
21326;SDS011;10822;51.532;6.770;2023-07-02T12:59:38;8.15;;;4.88;;
21326;SDS011;10822;51.532;6.770;2023-07-02T13:02:03;10.57;;;4.72;;
21326;SDS011;10822;51.532;6.770;2023-07-02T13:04:30;10.75;;;4.68;;
21326;SDS011;10822;51.532;6.770;2023-07-02T13:06:55;8.75;;;4.95;;
21326;SDS011;10822;51.532;6.770;2023-07-02T13:09:21;9.05;;;4.63;;
21326;SDS011;10822;51.532;6.770;2023-07-02T13:11:47;9.60;;;5.22;;
21326;SDS011;10822;51.532;6.770;2023-07-02T13:14:13;10.15;;;5.25;;
21326;SDS011;10822;51.532;6.770;2023-07-02T13:16:39;10.15;;;5.30;;
21326;SDS011;10822;51.532;6.770;2023-07-02T13:19:05;11.25;;;5.15;;
21326;SDS011;10822;51.532;6.770;2023-07-02T13:21:31;10.88;;;5.00;;
21326;SDS011;10822;51.532;6.770;2023-07-02T13:23:57;9.98;;;5.82;;
21326;SDS011;10822;51.532;6.770;2023-07-02T13:26:23;10.10;;;5.43;;
21326;SDS011;10822;51.532;6.770;2023-07-02T13:28:49;13.57;;;6.35;;
21326;SDS011;10822;51.532;6.770;2023-07-02T13:31:15;10.48;;;5.28;;
21326;SDS011;10822;51.532;6.770;2023-07-02T13:33:42;10.38;;;5.22;;
21326;SDS011;10822;51.532;6.770;2023-07-02T13:36:08;10.48;;;5.28;;
21326;SDS011;10822;51.532;6.770;2023-07-02T13:38:34;12.45;;;5.78;;
21326;SDS011;10822;51.532;6.770;2023-07-02T13:41:00;11.38;;;5.70;;
21326;SDS011;10822;51.532;6.770;2023-07-02T13:43:26;9.75;;;5.55;;
21326;SDS011;10822;51.532;6.770;2023-07-02T13:45:52;11.10;;;5.80;;
21326;SDS011;10822;51.532;6.770;2023-07-02T13:48:18;11.77;;;6.07;;
21326;SDS011;10822;51.532;6.770;2023-07-02T13:50:44;11.98;;;6.32;;
21326;SDS011;10822;51.532;6.770;2023-07-02T13:53:10;11.95;;;5.85;;
21326;SDS011;10822;51.532;6.770;2023-07-02T13:55:36;10.52;;;6.25;;
21326;SDS011;10822;51.532;6.770;2023-07-02T13:58:02;12.50;;;5.95;;
21326;SDS011;10822;51.532;6.770;2023-07-02T14:00:28;9.68;;;5.57;;
21326;SDS011;10822;51.532;6.770;2023-07-02T14:02:55;10.60;;;5.82;;
21326;SDS011;10822;51.532;6.770;2023-07-02T14:05:21;10.43;;;5.82;;
21326;SDS011;10822;51.532;6.770;2023-07-02T14:07:47;13.80;;;5.97;;
21326;SDS011;10822;51.532;6.770;2023-07-02T14:10:13;12.63;;;5.82;;
21326;SDS011;10822;51.532;6.770;2023-07-02T14:12:40;16.70;;;6.25;;
21326;SDS011;10822;51.532;6.770;2023-07-02T14:15:07;10.57;;;5.38;;
21326;SDS011;10822;51.532;6.770;2023-07-02T14:17:33;11.05;;;5.82;;
21326;SDS011;10822;51.532;6.770;2023-07-02T14:19:59;11.55;;;5.72;;
21326;SDS011;10822;51.532;6.770;2023-07-02T14:22:25;10.90;;;5.68;;
21326;SDS011;10822;51.532;6.770;2023-07-02T14:24:51;11.02;;;5.60;;
21326;SDS011;10822;51.532;6.770;2023-07-02T14:27:17;11.88;;;6.00;;
21326;SDS011;10822;51.532;6.770;2023-07-02T14:29:43;12.70;;;5.75;;
21326;SDS011;10822;51.532;6.770;2023-07-02T14:32:12;12.18;;;5.90;;
21326;SDS011;10822;51.532;6.770;2023-07-02T14:34:38;10.98;;;5.53;;
21326;SDS011;10822;51.532;6.770;2023-07-02T14:37:04;11.93;;;5.43;;
21326;SDS011;10822;51.532;6.770;2023-07-02T14:39:31;12.35;;;5.85;;
21326;SDS011;10822;51.532;6.770;2023-07-02T14:41:57;12.93;;;5.95;;
21326;SDS011;10822;51.532;6.770;2023-07-02T14:44:23;13.00;;;5.72;;
21326;SDS011;10822;51.532;6.770;2023-07-02T14:46:49;11.88;;;5.80;;